Detalii statie SCHWAB AGRO ARDUD [00001CF5]

Toti senzorii

Date Temperatura solului [C]Precipitatii [mm]Voltaj baterie [mV]Leaf Wetness [Min]HC Air temperature [C]HC Relative humidity [%]Punctul de roua [C]
medieminmaxsumaultimatimpmedieminmaxmediemediemin
2019-04-19 20:00:00 0 6688 12.59 11.46 14.32 53.03 3 2.6
2019-04-19 21:00:00 0 6688 10.15 8.82 11.46 59.03 2.3 1.9
2019-04-19 22:00:00 0 6678 10.73 9.08 11.76 55.12 1.8 1.5
2019-04-19 23:00:00 0 6678 9.05 7.27 10.4 59.03 1.2 1
2019-04-20 00:00:00 0 6668 5.62 4.2 6.94 74.07 1.1 0.9
2019-04-20 01:00:00 0 6668 4.19 3.26 4.74 82.8 1.3 0.6
2019-04-20 02:00:00 0 6668 3.52 2.82 4.2 84.87 1.1 0.9
2019-04-20 03:00:00 0 6668 2.34 1.4 3.48 91 0.9 0.6
2019-04-20 04:00:00 0 6660 0.87 0.17 1.52 99.61 0.7 0.1
2019-04-20 05:00:00 0 6660 0.35 -0.12 2.17 100 0.3 0
2019-04-20 06:00:00 0 6650 0.2 -0.57 1.23 99.97 0.2 -0.4
2019-04-20 07:00:00 0 6650 2.18 1.23 3.68 99.65 2 1.1
2019-04-20 08:00:00 0 6650 6.21 3.89 8.16 85.25 3.7 2.7
2019-04-20 09:00:00 0 6660 10.5 8.62 13.64 76.62 6.4 4.6
2019-04-20 10:00:00 0 6668 15.54 13.44 17.19 64.29 8.6 7.3
2019-04-20 11:00:00 0 6728 16.79 16.16 17.43 51.73 6.6 5.6
2019-04-20 12:00:00 0 6766 17.48 16.56 18.02 47.92 6.1 4.7
2019-04-20 13:00:00 0 6796 17.48 16.74 18.59 46.8 5.7 3.8
2019-04-20 14:00:00 0 6796 18.52 17.72 19.45 43.52 5.6 4.4
2019-04-20 15:00:00 0 6806 18.94 18.22 19.49 41.48 5.3 4.6
2019-04-20 16:00:00 0 6806 19.42 18.97 20.32 41.35 5.6 4.6
2019-04-20 17:00:00 0 6748 19.18 18.12 20.59 41.54 5.6 4
2019-04-20 18:00:00 0 6728 18.15 17.78 18.62 40.61 4.3 3.8
2019-04-20 19:00:00 0 6708 16.97 16.11 17.79 45.12 4.8 4.3
2019-04-20 20:00:00 0 6698 14.09 11.61 15.96 50.94 3.8 3
2019-04-20 21:00:00 0 6678 10.44 9.36 11.4 65.53 4 3.8
2019-04-20 22:00:00 0 6668 9.13 8.91 9.35 71.71 4.1 3.7
2019-04-20 23:00:00 0 6678 8.38 7.97 9.15 71.91 3.4 3
2019-04-21 00:00:00 0 6678 8.42 7.88 9.38 71.64 3.4 2.7
2019-04-21 01:00:00 0 6668 8.09 7.27 8.59 76.49 4 3.7
2019-04-21 02:00:00 0 6668 7.75 7.4 8.37 78.34 4 3.8
2019-04-21 03:00:00 0 6668 7.76 7.17 8.63 80.27 4.4 3.7
2019-04-21 04:00:00 0 6660 7.07 6.41 8.01 88.29 5.1 4.5
2019-04-21 05:00:00 0 6668 6.4 5.87 6.99 88.21 4.4 4.2
2019-04-21 06:00:00 0 6660 6.21 5.5 7.17 88.79 4.3 3.8
2019-04-21 07:00:00 0 6668 7.68 7.03 8.88 81.77 4.6 4.1
2019-04-21 08:00:00 0 6650 10.45 9.25 13.67 79.27 6.8 5.2
2019-04-21 09:00:00 0 6660 15.46 14.82 16.89 63.38 8.4 8
2019-04-21 10:00:00 0 6698 18.2 16.44 19.26 48.48 6.9 6.2
2019-04-21 11:00:00 0 6738 18.8 17.88 19.69 48.05 7.3 6.8
2019-04-21 12:00:00 0 6786 20.21 19.22 20.92 50.09 9.2 8.3
2019-04-21 13:00:00 0 6796 20.89 20 22.19 49.53 9.7 9
2019-04-21 14:00:00 0 6776 21.42 20.57 22.93 50.68 10.5 9.7
2019-04-21 15:00:00 0 6776 20.5 19.83 22.17 50.65 9.6 8.1
2019-04-21 16:00:00 0 6796 19.61 19.05 20.08 53.32 9.7 8
2019-04-21 17:00:00 0 6766 19.69 18.66 20.69 48.91 8.4 7.6
2019-04-21 18:00:00 0 6738 18.09 17 19.06 50.61 7.5 6.7
2019-04-21 19:00:00 0 6708 16.93 16.05 17.66 56.67 8 7